Time;durP1;ratioP1;P1;durP2;ratioP2;P2;SDS_P1;SDS_P2;PMS_P1;PMS_P2;Temp;Humidity;BMP_temperature;BMP_pressure;BME280_temperature;BME280_humidity;BME280_pressure;Samples;Min_cycle;Max_cycle;Signal;HPM_P1;HPM_P2
2022/07/18 00:02:15;;;;;;;0.10;0.10;;;;;;;22.02;52.62;102029.59;5112681;27;20043;-36
2022/07/18 00:04:41;;;;;;;0.10;0.10;;;;;;;22.01;52.66;102034.31;5107884;28;20536;-36
2022/07/18 00:07:10;;;;;;;0.10;0.10;;;;;;;22.02;52.59;102035.13;5123963;27;20062;-37
2022/07/18 00:09:36;;;;;;;0.10;0.10;;;;;;;22.01;52.70;102037.09;5112526;27;20071;-37
2022/07/18 00:12:03;;;;;;;0.10;0.10;;;;;;;22.01;52.82;102039.03;5128656;27;20457;-37
2022/07/18 00:14:29;;;;;;;0.10;0.10;;;;;;;22.02;52.68;102037.91;5130082;27;20454;-36
2022/07/18 00:16:54;;;;;;;0.10;0.10;;;;;;;22.02;52.53;102043.47;5126510;27;20039;-37
2022/07/18 00:19:20;;;;;;;0.10;0.10;;;;;;;22.02;52.70;102040.69;5124945;27;20048;-38
2022/07/18 00:21:46;;;;;;;0.10;0.10;;;;;;;22.03;52.62;102039.59;5124213;27;20065;-37
2022/07/18 00:24:12;;;;;;;0.10;0.10;;;;;;;22.02;52.77;102038.78;5124605;27;20044;-37
2022/07/18 00:26:37;;;;;;;0.10;0.10;;;;;;;22.01;52.94;102030.69;5125290;27;20438;-37
2022/07/18 00:29:03;;;;;;;0.10;0.10;;;;;;;22.01;52.74;102026.00;5123921;27;20499;-37
2022/07/18 00:31:31;;;;;;;0.20;0.20;;;;;;;22.03;52.62;102039.59;5126189;27;20050;-36
2022/07/18 00:33:57;;;;;;;0.10;0.10;;;;;;;22.02;52.57;102038.78;5125260;27;20087;-36
2022/07/18 00:36:22;;;;;;;0.10;0.10;;;;;;;22.02;52.64;102035.13;5125522;27;20072;-37
2022/07/18 00:38:48;;;;;;;0.10;0.10;;;;;;;22.03;52.69;102036.81;5128260;27;20043;-36
2022/07/18 00:41:15;;;;;;;0.10;0.10;;;;;;;22.03;52.61;102034.06;5125823;27;20070;-37
2022/07/18 00:43:41;;;;;;;0.10;0.10;;;;;;;22.02;52.92;102026.81;5126630;27;20112;-37
2022/07/18 00:46:07;;;;;;;0.10;0.10;;;;;;;22.00;52.83;102027.09;5108443;27;20051;-37
2022/07/18 00:48:33;;;;;;;0.10;0.10;;;;;;;22.02;52.95;102016.59;5125966;27;20073;-37
2022/07/18 00:50:58;;;;;;;0.10;0.10;;;;;;;22.01;52.60;102017.66;5128502;27;20048;-37
2022/07/18 00:53:24;;;;;;;0.10;0.10;;;;;;;22.01;52.70;102014.88;5132063;27;20096;-37
2022/07/18 00:55:51;;;;;;;0.10;0.10;;;;;;;22.02;52.44;102005.50;5125499;27;20038;-35
2022/07/18 00:58:18;;;;;;;0.10;0.10;;;;;;;22.02;52.86;102007.41;5099999;27;20433;-37
2022/07/18 01:03:29;;;;;;;0.10;0.10;;;;;;;22.02;52.60;102004.63;5095626;27;20141;-37
2022/07/18 01:05:54;;;;;;;0.10;0.10;;;;;;;22.03;52.70;102011.88;5108745;28;20047;-36
2022/07/18 01:08:20;;;;;;;0.10;0.10;;;;;;;22.02;52.96;102008.25;5122439;27;20043;-35
2022/07/18 01:10:46;;;;;;;0.10;0.10;;;;;;;22.02;52.83;101994.38;5125547;27;20134;-37
2022/07/18 01:13:12;;;;;;;0.10;0.10;;;;;;;22.02;52.61;101997.16;5124689;27;20044;-37
2022/07/18 01:15:37;;;;;;;0.10;0.10;;;;;;;22.03;52.66;102003.53;5123042;27;20043;-37
2022/07/18 01:18:04;;;;;;;0.10;0.10;;;;;;;22.01;52.80;102001.03;5122333;27;20043;-39
2022/07/18 01:20:30;;;;;;;0.10;0.10;;;;;;;22.02;52.61;102005.50;5123590;27;20067;-37
2022/07/18 01:22:57;;;;;;;0.10;0.10;;;;;;;22.03;52.65;102009.09;5108907;27;20130;-37
2022/07/18 01:25:23;;;;;;;0.10;0.10;;;;;;;22.02;52.67;102012.94;5128123;27;20352;-37
2022/07/18 01:27:49;;;;;;;0.10;0.10;;;;;;;22.01;52.77;102003.78;5129161;27;20036;-37
2022/07/18 01:30:15;;;;;;;0.10;0.10;;;;;;;22.03;52.76;102009.09;5119214;27;20436;-37
2022/07/18 01:32:41;;;;;;;0.10;0.10;;;;;;;22.02;52.91;102001.84;5116673;27;20057;-37
2022/07/18 01:35:08;;;;;;;0.10;0.10;;;;;;;22.02;52.68;102001.84;5127572;27;20044;-37
2022/07/18 01:37:33;;;;;;;0.10;0.10;;;;;;;22.02;53.16;102010.16;5127479;27;20066;-37
2022/07/18 01:39:59;;;;;;;0.10;0.10;;;;;;;22.02;52.86;102007.41;5124549;27;20047;-38
2022/07/18 01:42:25;;;;;;;0.10;0.10;;;;;;;22.02;52.62;102005.50;5125188;27;20528;-35
2022/07/18 01:44:51;;;;;;;0.10;0.10;;;;;;;22.03;52.60;102006.31;5125889;27;20047;-37
2022/07/18 01:47:16;;;;;;;0.10;0.10;;;;;;;22.02;52.78;102004.63;5106044;27;20135;-37
2022/07/18 01:49:42;;;;;;;0.10;0.10;;;;;;;22.02;52.59;102008.25;5109425;27;20035;-37
2022/07/18 01:52:08;;;;;;;0.10;0.10;;;;;;;22.02;52.78;102008.25;5121853;27;20082;-37
2022/07/18 01:54:35;;;;;;;0.10;0.10;;;;;;;22.02;52.68;102005.50;5130169;27;20048;-37
2022/07/18 01:57:02;;;;;;;0.10;0.10;;;;;;;22.02;52.61;102008.25;5126149;27;20073;-36
2022/07/18 01:59:28;;;;;;;0.10;0.10;;;;;;;22.02;52.70;102007.41;5121404;27;20067;-37
2022/07/18 02:01:53;;;;;;;0.10;0.10;;;;;;;22.03;52.54;102006.31;5124039;27;20046;-38
2022/07/18 02:04:19;;;;;;;0.10;0.10;;;;;;;22.01;52.71;102003.78;5103868;28;20073;-37
2022/07/18 02:06:45;;;;;;;0.10;0.10;;;;;;;22.02;52.73;101999.94;5123659;27;20470;-37
2022/07/18 02:09:11;;;;;;;0.20;0.20;;;;;;;22.03;52.77;102003.53;5103122;27;20043;-37
2022/07/18 02:11:37;;;;;;;0.10;0.10;;;;;;;22.02;52.60;102007.41;5120064;27;20049;-39
2022/07/18 02:14:04;;;;;;;0.10;0.10;;;;;;;22.02;52.70;102004.63;5122754;27;20484;-37
2022/07/18 02:16:30;;;;;;;0.10;0.10;;;;;;;22.02;52.74;102002.72;5126503;27;20047;-39
2022/07/18 02:18:56;;;;;;;0.10;0.10;;;;;;;22.03;52.74;101998.00;5127690;27;20039;-39
2022/07/18 02:21:22;;;;;;;0.10;0.10;;;;;;;22.03;52.73;102003.53;5125030;27;20120;-37
2022/07/18 02:23:48;;;;;;;0.10;0.10;;;;;;;22.03;53.07;102001.59;5126884;27;20043;-35
2022/07/18 02:26:13;;;;;;;0.10;0.10;;;;;;;22.02;52.85;101997.16;5125379;27;20035;-38
2022/07/18 02:28:39;;;;;;;0.10;0.10;;;;;;;22.02;52.71;101991.63;5123425;27;20048;-36
2022/07/18 02:31:05;;;;;;;0.10;0.10;;;;;;;22.01;52.54;101989.94;5124994;27;20043;-37
2022/07/18 02:33:31;;;;;;;0.10;0.10;;;;;;;22.02;52.71;101988.84;5089059;27;20062;-37
2022/07/18 02:35:57;;;;;;;0.10;0.10;;;;;;;22.03;52.70;101981.34;5099499;28;20067;-37
2022/07/18 02:38:23;;;;;;;0.10;0.10;;;;;;;22.03;52.74;101986.91;5106780;27;20045;-38
2022/07/18 02:40:51;;;;;;;;;;;;;;;22.02;52.76;101986.06;5121294;27;20138;-37
2022/07/18 02:43:17;;;;;;;0.10;0.10;;;;;;;22.01;52.70;101989.94;5128118;27;20250;-38
2022/07/18 02:45:42;;;;;;;0.10;0.10;;;;;;;22.02;52.74;101991.63;5124335;27;20042;-35
2022/07/18 02:48:09;;;;;;;0.10;0.10;;;;;;;22.02;52.78;101987.97;5120260;27;20286;-37
2022/07/18 02:50:34;;;;;;;0.10;0.10;;;;;;;22.01;52.77;101986.31;5126927;27;20043;-38
2022/07/18 02:53:00;;;;;;;0.10;0.10;;;;;;;22.02;52.68;101994.38;5109123;28;20043;-39
2022/07/18 02:55:26;;;;;;;0.10;0.10;;;;;;;22.01;52.59;101991.88;5126919;27;20067;-38
2022/07/18 02:57:51;;;;;;;0.10;0.10;;;;;;;22.02;52.78;101996.31;5127287;27;20051;-36
2022/07/18 03:00:17;;;;;;;0.10;0.10;;;;;;;22.03;52.74;101992.44;5121015;27;20435;-39
2022/07/18 03:02:44;;;;;;;0.10;0.10;;;;;;;22.02;52.69;101994.38;5122773;27;20066;-37
2022/07/18 03:05:09;;;;;;;0.10;0.10;;;;;;;22.03;52.46;101984.97;5118742;27;20074;-39
2022/07/18 03:07:35;;;;;;;0.10;0.10;;;;;;;22.02;52.69;101991.63;5104640;27;20393;-38
2022/07/18 03:10:02;;;;;;;0.10;0.10;;;;;;;22.02;52.81;101988.84;5120295;27;20043;-38
2022/07/18 03:12:28;;;;;;;0.10;0.10;;;;;;;22.01;52.89;101992.69;5121541;27;20138;-37
2022/07/18 03:14:54;;;;;;;0.10;0.10;;;;;;;22.02;52.75;101988.84;5116364;27;20036;-38
2022/07/18 03:17:19;;;;;;;0.10;0.10;;;;;;;22.02;52.78;101985.22;5123214;27;20435;-37
2022/07/18 03:19:45;;;;;;;0.10;0.10;;;;;;;22.04;52.55;101981.06;5125248;27;20055;-38
2022/07/18 03:22:11;;;;;;;0.10;0.10;;;;;;;22.03;52.76;101970.25;5125851;27;20079;-37
2022/07/18 03:24:36;;;;;;;0.10;0.10;;;;;;;22.03;52.83;101976.63;5126799;27;20043;-38
2022/07/18 03:27:02;;;;;;;0.10;0.10;;;;;;;22.02;52.66;101974.97;5125486;27;20084;-36
2022/07/18 03:29:28;;;;;;;0.10;0.10;;;;;;;22.03;52.77;101970.25;5125736;27;20039;-37
2022/07/18 03:31:53;;;;;;;0.10;0.10;;;;;;;22.02;52.64;101974.13;5112538;28;20050;-37
2022/07/18 03:34:19;;;;;;;0.17;0.17;;;;;;;22.02;52.84;101971.34;5122994;27;20060;-37
2022/07/18 03:36:45;;;;;;;0.10;0.10;;;;;;;22.02;52.66;101961.09;5123775;27;20047;-40
2022/07/18 03:39:12;;;;;;;0.10;0.10;;;;;;;22.02;52.81;101966.66;5113065;27;20498;-36
2022/07/18 03:41:38;;;;;;;0.10;0.10;;;;;;;22.03;52.74;101964.72;5111223;27;20083;-37
2022/07/18 03:44:04;;;;;;;0.10;0.10;;;;;;;22.02;52.67;101966.66;5134378;27;20099;-37
2022/07/18 03:46:30;;;;;;;0.10;0.10;;;;;;;22.02;52.73;101972.19;5103234;27;20130;-37
2022/07/18 03:48:56;;;;;;;0.10;0.10;;;;;;;22.02;52.88;101972.19;5128692;27;20415;-37
2022/07/18 03:51:22;;;;;;;0.10;0.10;;;;;;;22.02;52.67;101980.53;5127689;27;20073;-38
2022/07/18 03:53:48;;;;;;;0.10;0.10;;;;;;;22.02;52.81;101974.97;5132943;27;20047;-37
2022/07/18 03:56:14;;;;;;;0.10;0.10;;;;;;;22.03;52.75;101975.81;5124974;27;20039;-38
2022/07/18 03:58:39;;;;;;;0.10;0.10;;;;;;;22.02;52.66;101968.56;5128963;27;20166;-38
2022/07/18 04:01:05;;;;;;;0.10;0.10;;;;;;;22.03;52.74;101975.81;5125355;27;20160;-37
2022/07/18 04:03:31;;;;;;;0.10;0.10;;;;;;;22.02;52.84;101977.75;5110278;27;20085;-37
2022/07/18 04:05:57;;;;;;;0.10;0.10;;;;;;;22.02;52.73;101974.97;5131813;27;20338;-37
2022/07/18 04:08:22;;;;;;;0.10;0.10;;;;;;;22.00;52.88;101971.63;5121845;27;20542;-37
2022/07/18 04:10:48;;;;;;;0.10;0.10;;;;;;;22.01;52.84;101973.28;5124964;27;20085;-37
2022/07/18 04:13:14;;;;;;;0.10;0.10;;;;;;;22.03;52.60;101973.03;5125900;27;20463;-38
2022/07/18 04:15:40;;;;;;;0.10;0.10;;;;;;;22.01;52.68;101970.50;5123140;27;20046;-36
2022/07/18 04:18:06;;;;;;;0.10;0.10;;;;;;;22.01;52.86;101973.28;5124616;27;20456;-37
2022/07/18 04:20:33;;;;;;;0.10;0.10;;;;;;;22.01;52.64;101973.28;5129226;27;20074;-37
2022/07/18 04:23:01;;;;;;;0.10;0.10;;;;;;;22.02;52.62;101974.13;5106755;27;20534;-37
2022/07/18 04:25:32;;;;;;;0.10;0.10;;;;;;;22.02;52.71;101980.53;5105018;27;20075;-39
2022/07/18 04:27:58;;;;;;;0.10;0.10;;;;;;;22.02;52.55;101974.13;5091642;28;20067;-38
2022/07/18 04:30:26;;;;;;;0.10;0.10;;;;;;;22.01;52.74;101972.44;5130717;27;20100;-37
2022/07/18 04:32:52;;;;;;;0.10;0.10;;;;;;;22.02;52.86;101972.19;5109938;27;20050;-38
2022/07/18 04:35:20;;;;;;;0.10;0.10;;;;;;;22.02;52.87;101971.34;5124564;27;20092;-37
2022/07/18 04:37:45;;;;;;;0.10;0.10;;;;;;;22.02;52.87;101971.34;5113124;28;20081;-37
2022/07/18 04:40:11;;;;;;;0.10;0.10;;;;;;;22.02;52.76;101963.00;5123504;27;20039;-37
2022/07/18 04:42:37;;;;;;;0.10;0.10;;;;;;;22.02;52.70;101968.56;5126821;27;20075;-36
2022/07/18 04:45:04;;;;;;;0.10;0.10;;;;;;;22.01;52.83;101962.19;5109540;27;20135;-37
2022/07/18 04:47:30;;;;;;;0.17;0.17;;;;;;;22.02;52.75;101963.88;5109507;27;20473;-39
2022/07/18 04:49:56;;;;;;;0.10;0.10;;;;;;;22.01;52.77;101962.19;5106754;28;20122;-37
2022/07/18 04:52:22;;;;;;;0.10;0.10;;;;;;;22.01;53.03;101964.13;5128076;27;20055;-37
2022/07/18 04:54:48;;;;;;;0.10;0.10;;;;;;;22.01;53.00;101969.69;5108770;27;20096;-38
2022/07/18 04:57:14;;;;;;;0.10;0.10;;;;;;;22.00;52.69;101956.94;5125330;27;20074;-38
2022/07/18 04:59:41;;;;;;;0.10;0.10;;;;;;;22.00;52.63;101946.66;5125484;27;20144;-37
2022/07/18 05:02:08;;;;;;;0.10;0.10;;;;;;;22.02;52.64;101954.69;5106234;28;20075;-38
2022/07/18 05:04:34;;;;;;;0.10;0.10;;;;;;;22.02;52.86;101949.16;5121462;27;20044;-38
2022/07/18 05:06:59;;;;;;;0.10;0.10;;;;;;;22.02;52.85;101952.78;5105311;27;20039;-37
2022/07/18 05:09:25;;;;;;;0.10;0.10;;;;;;;22.03;52.71;101960.00;5120922;27;20067;-37
2022/07/18 05:11:51;;;;;;;0.10;0.10;;;;;;;22.02;52.70;101952.78;5122016;27;20047;-36
2022/07/18 05:14:17;;;;;;;0.10;0.10;;;;;;;22.02;52.76;101954.69;5125597;27;20036;-38
2022/07/18 05:16:43;;;;;;;0.10;0.10;;;;;;;22.01;52.75;101948.31;5100825;28;20096;-37
2022/07/18 05:19:08;;;;;;;0.10;0.10;;;;;;;22.01;52.97;101953.88;5125107;27;20432;-37
2022/07/18 05:21:34;;;;;;;0.10;0.10;;;;;;;22.01;53.03;101945.53;5124686;27;20434;-38
2022/07/18 05:24:00;;;;;;;0.10;0.10;;;;;;;22.01;53.04;101947.50;5129545;27;20053;-38
2022/07/18 05:26:25;;;;;;;0.10;0.10;;;;;;;22.01;52.95;101951.09;5121269;27;21043;-37
2022/07/18 05:28:51;;;;;;;0.10;0.10;;;;;;;22.02;52.90;101950.00;5122142;27;20053;-37
2022/07/18 05:31:17;;;;;;;0.10;0.10;;;;;;;22.01;52.87;101947.50;5124895;27;20035;-37
2022/07/18 05:33:43;;;;;;;0.10;0.10;;;;;;;22.01;53.08;101953.88;5101494;27;20509;-38
2022/07/18 05:36:09;;;;;;;0.10;0.10;;;;;;;22.00;52.95;101954.97;5122345;27;20049;-38
2022/07/18 05:38:34;;;;;;;0.10;0.10;;;;;;;22.01;52.80;101955.81;5123940;27;20119;-38
2022/07/18 05:41:00;;;;;;;0.10;0.10;;;;;;;22.02;52.95;101954.69;5127636;27;20043;-38
2022/07/18 05:43:26;;;;;;;0.10;0.10;;;;;;;22.01;53.13;101948.31;5129593;27;20055;-38
2022/07/18 05:45:51;;;;;;;0.10;0.10;;;;;;;22.01;52.91;101944.72;5121334;27;20053;-39
2022/07/18 05:48:17;;;;;;;0.10;0.10;;;;;;;22.01;52.75;101947.50;5123220;27;20039;-37
2022/07/18 05:50:44;;;;;;;0.10;0.10;;;;;;;22.01;53.02;101947.50;5127883;27;20108;-37
2022/07/18 05:53:09;;;;;;;0.10;0.10;;;;;;;22.00;52.93;101938.34;5127712;27;20082;-36
2022/07/18 05:55:35;;;;;;;0.10;0.10;;;;;;;22.01;52.95;101942.78;5123657;27;20039;-38
2022/07/18 05:58:01;;;;;;;0.10;0.10;;;;;;;22.01;52.95;101937.22;5126036;27;20390;-37
2022/07/18 06:00:26;;;;;;;0.10;0.10;;;;;;;22.01;53.03;101945.53;5126538;27;20129;-38
2022/07/18 06:02:52;;;;;;;0.10;0.10;;;;;;;22.00;52.89;101946.66;5122304;27;20047;-38
2022/07/18 06:05:18;;;;;;;0.10;0.10;;;;;;;22.01;52.96;101944.72;5121997;27;20050;-38
2022/07/18 06:07:50;;;;;;;0.10;0.10;;;;;;;22.02;52.93;101940.81;5108358;27;20081;-37
2022/07/18 06:10:16;;;;;;;0.10;0.10;;;;;;;22.01;53.08;101940.00;5122806;27;20048;-37
2022/07/18 06:12:42;;;;;;;0.10;0.10;;;;;;;22.02;52.62;101935.28;5103608;28;21068;-39
2022/07/18 06:15:08;;;;;;;0.10;0.10;;;;;;;22.00;53.01;101930.03;5125411;27;20051;-39
2022/07/18 06:17:35;;;;;;;0.10;0.10;;;;;;;22.00;52.64;101927.25;5119769;27;20084;-38
2022/07/18 06:20:00;;;;;;;0.10;0.10;;;;;;;22.02;52.66;101935.28;5125719;27;20035;-36
2022/07/18 06:22:26;;;;;;;0.10;0.10;;;;;;;22.03;52.77;101934.19;5105601;27;20035;-37
2022/07/18 06:24:52;;;;;;;0.10;0.10;;;;;;;22.03;52.79;101942.50;5121819;27;20112;-37
2022/07/18 06:27:18;;;;;;;0.10;0.10;;;;;;;22.03;52.78;101939.75;5119423;27;20478;-39
2022/07/18 06:29:44;;;;;;;0.10;0.10;;;;;;;22.01;52.68;101931.69;5116714;27;20058;-37
2022/07/18 06:32:09;;;;;;;0.10;0.10;;;;;;;22.01;52.93;101922.53;5120616;27;20050;-37
2022/07/18 06:34:35;;;;;;;0.10;0.10;;;;;;;22.01;52.95;101928.06;5119408;27;20079;-38
2022/07/18 06:37:01;;;;;;;0.10;0.10;;;;;;;22.01;52.91;101930.84;5123374;27;20161;-39
2022/07/18 06:39:27;;;;;;;0.10;0.10;;;;;;;22.01;52.91;101922.53;5121762;27;20078;-38
2022/07/18 06:41:53;;;;;;;0.10;0.10;;;;;;;22.01;52.94;101922.53;5126968;27;20049;-38
2022/07/18 06:44:19;;;;;;;0.10;0.10;;;;;;;22.00;53.02;101918.91;5122403;27;20066;-38
2022/07/18 06:46:44;;;;;;;0.10;0.10;;;;;;;22.01;52.74;101925.31;5129084;27;20470;-38
2022/07/18 06:49:10;;;;;;;0.10;0.10;;;;;;;22.01;52.92;101917.81;5125909;27;20414;-38
2022/07/18 06:51:36;;;;;;;0.10;0.10;;;;;;;22.01;52.87;101920.59;5126935;27;20043;-38
2022/07/18 06:54:02;;;;;;;0.10;0.10;;;;;;;22.01;52.61;101925.31;5104140;28;20589;-38
2022/07/18 06:56:27;;;;;;;0.10;0.10;;;;;;;22.03;52.58;101923.09;5126379;27;20492;-38
2022/07/18 06:58:53;;;;;;;0.10;0.10;;;;;;;22.02;52.79;101926.97;5131485;27;20043;-38
2022/07/18 07:01:20;;;;;;;0.10;0.10;;;;;;;22.01;52.89;101926.13;5124319;27;20339;-38
2022/07/18 07:03:46;;;;;;;0.10;0.10;;;;;;;22.01;52.92;101919.75;5125709;27;20389;-38
2022/07/18 07:06:12;;;;;;;0.10;0.10;;;;;;;22.01;52.71;101925.31;5110144;27;20077;-38
2022/07/18 07:08:38;;;;;;;0.10;0.10;;;;;;;22.01;52.88;101922.53;5125103;27;20091;-38
2022/07/18 07:11:04;;;;;;;0.10;0.10;;;;;;;22.01;52.95;101930.84;5124536;27;20040;-38
2022/07/18 07:13:29;;;;;;;0.10;0.10;;;;;;;22.02;52.81;101930.59;5123672;27;20051;-39
2022/07/18 07:15:55;;;;;;;0.10;0.10;;;;;;;22.02;52.88;101924.19;5123831;27;20043;-38
2022/07/18 07:18:21;;;;;;;0.10;0.10;;;;;;;22.02;52.46;101925.03;5126672;27;20140;-37
2022/07/18 07:20:47;;;;;;;0.10;0.10;;;;;;;22.02;52.83;101924.19;5110625;27;20136;-37
2022/07/18 07:23:12;;;;;;;0.10;0.10;;;;;;;22.01;52.95;101911.44;5111189;28;20127;-39
2022/07/18 07:25:38;;;;;;;0.10;0.10;;;;;;;22.01;52.86;101919.75;5108627;27;20190;-38
2022/07/18 07:28:05;;;;;;;0.10;0.10;;;;;;;22.01;52.70;101909.47;5108035;27;20040;-38
2022/07/18 07:30:32;;;;;;;0.10;0.10;;;;;;;22.01;52.46;101916.97;5106962;27;20532;-38
2022/07/18 07:32:58;;;;;;;0.10;0.10;;;;;;;22.02;52.92;101907.53;5107682;27;20070;-38
2022/07/18 07:35:24;;;;;;;0.10;0.10;;;;;;;22.02;52.83;101913.09;5123114;27;20643;-39
2022/07/18 07:37:53;;;;;;;0.10;0.10;;;;;;;22.01;52.85;101912.25;5130968;27;20043;-38
2022/07/18 07:40:19;;;;;;;0.10;0.10;;;;;;;22.01;53.02;101915.03;5103050;27;20401;-38
2022/07/18 07:42:45;;;;;;;0.10;0.10;;;;;;;22.02;52.66;101911.19;5128798;27;20047;-38
2022/07/18 07:45:11;;;;;;;0.10;0.10;;;;;;;22.02;52.93;101904.78;5123043;27;20044;-38
2022/07/18 07:47:37;;;;;;;0.10;0.10;;;;;;;22.00;53.06;101905.06;5123229;27;20094;-38
2022/07/18 07:50:04;;;;;;;0.10;0.10;;;;;;;22.00;52.97;101902.28;5127210;27;20056;-39
2022/07/18 07:52:30;;;;;;;0.10;0.10;;;;;;;22.01;52.94;101909.47;5128617;27;20043;-38
2022/07/18 07:54:56;;;;;;;0.10;0.10;;;;;;;22.02;52.81;101897.31;5126138;27;20768;-39
2022/07/18 07:57:21;;;;;;;0.10;0.10;;;;;;;22.01;52.74;101901.16;5129457;27;20048;-37
2022/07/18 07:59:47;;;;;;;0.10;0.10;;;;;;;22.02;52.64;101888.13;5128255;27;20485;-37
2022/07/18 08:02:13;;;;;;;0.10;0.10;;;;;;;22.02;52.75;101888.97;5126336;27;20035;-38
2022/07/18 08:04:39;;;;;;;0.10;0.10;;;;;;;22.01;52.82;101898.38;5121853;27;20044;-38
2022/07/18 08:07:04;;;;;;;0.10;0.10;;;;;;;22.01;52.76;101895.63;5127324;27;20039;-37
2022/07/18 08:09:30;;;;;;;0.10;0.10;;;;;;;22.01;52.83;101892.00;5126552;27;20494;-38
2022/07/18 08:11:56;;;;;;;0.10;0.10;;;;;;;22.01;52.87;101895.63;5127103;27;20469;-38
2022/07/18 08:14:21;;;;;;;0.10;0.10;;;;;;;22.01;52.45;101892.84;5127467;27;21646;-39
2022/07/18 08:16:47;;;;;;;0.10;0.10;;;;;;;22.01;52.63;101895.63;5125508;27;20066;-38
2022/07/18 08:19:13;;;;;;;0.10;0.10;;;;;;;22.00;52.93;101893.97;5124856;27;20051;-39
2022/07/18 08:21:39;;;;;;;0.10;0.10;;;;;;;22.01;52.59;101894.78;5125023;27;20043;-38
2022/07/18 08:24:04;;;;;;;0.10;0.10;;;;;;;21.99;52.62;101892.31;5105835;27;20047;-38
2022/07/18 08:26:31;;;;;;;0.10;0.10;;;;;;;22.01;52.58;101890.06;5126435;27;20043;-37
2022/07/18 08:28:57;;;;;;;0.10;0.10;;;;;;;22.01;52.94;101886.47;5126523;27;20067;-38
2022/07/18 08:31:25;;;;;;;0.10;0.10;;;;;;;22.00;52.87;101887.59;5124479;27;20496;-38
2022/07/18 08:33:54;;;;;;;0.10;0.10;;;;;;;22.00;53.14;101890.34;5124167;27;20446;-38
2022/07/18 08:36:20;;;;;;;0.10;0.10;;;;;;;22.02;52.68;101888.13;5126699;27;20092;-39
2022/07/18 08:38:46;;;;;;;0.10;0.10;;;;;;;22.01;52.85;101878.16;5125860;27;20050;-39
2022/07/18 08:41:12;;;;;;;0.10;0.10;;;;;;;22.01;52.83;101878.97;5109241;27;20136;-38
2022/07/18 08:43:37;;;;;;;0.10;0.10;;;;;;;22.00;52.63;101869.00;5110923;27;20042;-38
2022/07/18 08:46:05;;;;;;;0.10;0.10;;;;;;;22.00;53.02;101874.53;5130055;27;20047;-38
2022/07/18 08:48:31;;;;;;;0.15;0.15;;;;;;;22.00;53.02;101869.00;5102279;28;20039;-39
2022/07/18 08:50:58;;;;;;;0.20;0.20;;;;;;;22.01;52.86;101865.09;5090481;28;20460;-38
2022/07/18 08:53:24;;;;;;;0.10;0.10;;;;;;;22.00;52.96;101871.78;5127210;27;20512;-38
2022/07/18 08:55:50;;;;;;;0.10;0.10;;;;;;;22.01;53.02;101869.81;5109118;28;20061;-38
2022/07/18 08:58:17;;;;;;;0.10;0.10;;;;;;;22.01;52.87;101869.81;5126022;27;20120;-38
2022/07/18 09:01:03;;;;;;;0.10;0.10;;;;;;;22.02;52.91;101871.47;5106389;27;20379;-38
2022/07/18 09:03:29;;;;;;;0.10;0.10;;;;;;;22.01;52.71;101870.66;5135657;27;20054;-39
2022/07/18 09:06:12;;;;;;;0.10;0.10;;;;;;;22.00;52.90;101876.50;5103226;28;20051;-38
2022/07/18 09:08:39;;;;;;;0.10;0.10;;;;;;;22.00;52.60;101874.53;5130307;27;20076;-37
2022/07/18 09:11:10;;;;;;;0.10;0.10;;;;;;;22.01;52.86;101878.97;5125933;27;20035;-38
2022/07/18 09:13:55;;;;;;;0.10;0.10;;;;;;;22.02;52.59;101879.81;5092967;27;20054;-38
2022/07/18 09:16:21;;;;;;;0.10;0.10;;;;;;;22.00;52.93;101882.03;5123472;27;20043;-39
2022/07/18 09:18:48;;;;;;;0.10;0.10;;;;;;;22.01;53.00;101881.75;5126120;27;20039;-38
2022/07/18 09:21:20;;;;;;;0.10;0.10;;;;;;;22.01;52.77;101876.19;5124471;27;20419;-38
2022/07/18 09:23:49;;;;;;;0.10;0.10;;;;;;;22.01;52.83;101878.97;5125138;27;20139;-38
2022/07/18 09:26:36;;;;;;;0.10;0.10;;;;;;;22.02;52.76;101882.56;5110292;27;20074;-38
2022/07/18 09:29:02;;;;;;;0.10;0.10;;;;;;;22.01;52.58;101878.97;5120229;28;20095;-38
2022/07/18 09:31:50;;;;;;;0.10;0.10;;;;;;;22.00;52.70;101879.25;5094906;27;20051;-39
2022/07/18 09:34:32;;;;;;;0.10;0.10;;;;;;;22.00;53.10;101874.53;5124166;27;20039;-37
2022/07/18 09:36:58;;;;;;;0.10;0.10;;;;;;;22.00;53.02;101879.25;5103178;27;20434;-38
2022/07/18 09:39:23;;;;;;;0.10;0.10;;;;;;;22.01;52.99;101880.91;5118941;27;20046;-39
2022/07/18 09:41:49;;;;;;;0.10;0.10;;;;;;;22.00;52.77;101880.09;5120378;27;20080;-38
2022/07/18 09:44:16;;;;;;;0.10;0.10;;;;;;;22.00;52.96;101874.53;5122168;27;20043;-38
2022/07/18 09:47:02;;;;;;;0.10;0.10;;;;;;;22.01;53.02;101867.06;5126552;27;20068;-38
2022/07/18 09:49:30;;;;;;;0.10;0.10;;;;;;;22.02;52.95;101863.16;5105643;27;20439;-38
2022/07/18 09:52:06;;;;;;;0.10;0.10;;;;;;;22.01;52.34;101854.00;5127938;27;20502;-38
2022/07/18 09:54:39;;;;;;;0.10;0.10;;;;;;;22.02;52.81;101858.47;5105889;28;20051;-38
2022/07/18 09:57:05;;;;;;;0.10;0.10;;;;;;;22.00;52.72;101849.59;5127782;27;20485;-38
2022/07/18 09:59:32;;;;;;;0.10;0.10;;;;;;;22.01;52.75;101842.09;5123721;27;20170;-36
2022/07/18 10:01:58;;;;;;;0.10;0.10;;;;;;;22.00;52.70;101846.81;5119838;27;20067;-37
2022/07/18 10:04:24;;;;;;;0.10;0.10;;;;;;;22.01;52.94;101844.88;5128323;27;20095;-36
2022/07/18 10:06:50;;;;;;;0.10;0.10;;;;;;;22.01;52.89;101844.88;5125055;27;20043;-37
2022/07/18 10:09:15;;;;;;;0.10;0.10;;;;;;;22.01;52.96;101851.25;5119311;27;20048;-37
2022/07/18 10:11:42;;;;;;;0.10;0.10;;;;;;;22.02;52.93;101854.84;5127646;27;20448;-38
2022/07/18 10:14:08;;;;;;;0.10;0.10;;;;;;;22.00;52.98;101851.53;5123227;27;20104;-38
2022/07/18 10:16:34;;;;;;;0.10;0.10;;;;;;;22.02;52.89;101849.28;5122567;27;20039;-38
2022/07/18 10:19:00;;;;;;;0.20;0.20;;;;;;;22.01;52.96;101844.88;5123335;27;20054;-38
2022/07/18 10:21:29;;;;;;;0.10;0.10;;;;;;;22.01;52.96;101853.19;5133857;27;20050;-38
2022/07/18 10:23:56;;;;;;;0.10;0.10;;;;;;;22.03;52.92;101856.53;5121199;27;20088;-37
2022/07/18 10:26:28;;;;;;;0.10;0.10;;;;;;;22.03;52.90;101859.31;5103417;27;20044;-37
2022/07/18 10:31:33;;;;;;;0.10;0.10;;;;;;;22.01;52.94;101862.34;5167088;27;20644;-38
2022/07/18 10:39:39;;;;;;;0.10;0.10;;;;;;;22.00;53.02;101855.13;5178744;27;20164;-37
2022/07/18 10:44:45;;;;;;;0.10;0.10;;;;;;;22.01;53.03;101853.19;5158549;27;20644;-39
2022/07/18 10:47:17;;;;;;;0.10;0.10;;;;;;;22.00;52.30;101855.13;5137743;27;20062;-38
2022/07/18 11:00:34;;;;;;;0.10;0.10;;;;;;;22.01;52.95;101845.69;5166338;27;20156;-38
2022/07/18 11:05:44;;;;;;;0.10;0.10;;;;;;;22.01;52.78;101845.69;5166102;27;21036;-38
2022/07/18 11:08:17;;;;;;;0.10;0.10;;;;;;;22.01;53.00;101842.09;5163017;27;20058;-39
2022/07/18 11:16:09;;;;;;;0.10;0.10;;;;;;;22.02;52.94;101833.50;5159190;27;20206;-38
2022/07/18 11:21:24;;;;;;;0.20;0.20;;;;;;;22.02;52.62;101832.66;5158682;27;20213;-38
2022/07/18 11:23:52;;;;;;;0.10;0.10;;;;;;;22.01;52.91;101831.00;5160398;27;20045;-37
2022/07/18 11:26:21;;;;;;;0.10;0.10;;;;;;;22.01;52.84;101828.22;5140087;27;20078;-38
2022/07/18 11:28:58;;;;;;;0.10;0.10;;;;;;;22.02;52.92;101827.09;5144113;27;20381;-37
2022/07/18 11:31:23;;;;;;;0.10;0.10;;;;;;;22.01;52.91;101831.81;5164142;27;20080;-37
2022/07/18 11:33:49;;;;;;;0.10;0.10;;;;;;;22.01;52.93;101815.19;5159814;27;20447;-38
2022/07/18 11:36:18;;;;;;;0.10;0.10;;;;;;;22.02;52.92;101814.09;5138992;27;20488;-39
2022/07/18 11:38:52;;;;;;;0.10;0.10;;;;;;;22.03;52.99;101817.69;5146064;27;20046;-37
2022/07/18 11:41:19;;;;;;;0.10;0.10;;;;;;;22.03;52.89;101801.06;5139825;27;20327;-37
2022/07/18 11:43:46;;;;;;;0.10;0.10;;;;;;;22.03;52.70;101809.38;5120586;27;20078;-38
2022/07/18 11:46:14;;;;;;;0.10;0.10;;;;;;;22.01;52.75;101809.63;5135571;27;20061;-38
2022/07/18 11:48:46;;;;;;;0.10;0.10;;;;;;;22.02;52.47;101796.59;5120826;27;20478;-38
2022/07/18 11:51:15;;;;;;;0.10;0.10;;;;;;;22.02;52.50;101785.50;5137204;27;20039;-36
2022/07/18 11:53:49;;;;;;;0.10;0.10;;;;;;;22.02;52.28;101794.69;5120984;27;20074;-38
2022/07/18 11:56:16;;;;;;;0.10;0.10;;;;;;;22.01;52.79;101789.38;5116369;27;20047;-38
2022/07/18 11:58:43;;;;;;;0.10;0.10;;;;;;;22.02;52.91;101789.13;5137799;27;20081;-38